createdAt,value
2023-01-08T00:01:08.243Z,24.23
2023-01-08T00:03:36.334Z,23.88
2023-01-08T00:06:05.552Z,23.79
2023-01-08T00:08:33.253Z,25.18
2023-01-08T00:11:00.476Z,23.64
2023-01-08T00:13:28.315Z,23.66
2023-01-08T00:15:55.304Z,24.32
2023-01-08T00:18:22.536Z,24.47
2023-01-08T00:20:49.488Z,28.00
2023-01-08T00:23:19.330Z,25.78
2023-01-08T00:25:46.782Z,27.56
2023-01-08T00:28:15.175Z,26.32
2023-01-08T00:30:42.529Z,27.12
2023-01-08T00:33:10.431Z,25.64
2023-01-08T00:35:40.054Z,24.79
2023-01-08T00:38:07.389Z,26.40
2023-01-08T00:40:35.772Z,24.74
2023-01-08T00:43:03.375Z,24.63
2023-01-08T00:45:30.779Z,26.50
2023-01-08T00:47:58.214Z,23.78
2023-01-08T00:50:25.720Z,26.97
2023-01-08T00:52:52.574Z,28.90
2023-01-08T00:55:19.849Z,24.97
2023-01-08T00:57:46.989Z,24.06
2023-01-08T01:00:16.003Z,26.45
2023-01-08T01:02:43.430Z,30.15
2023-01-08T01:05:15.301Z,26.43
2023-01-08T01:07:43.754Z,25.08
2023-01-08T01:10:12.595Z,25.86
2023-01-08T01:12:40.400Z,24.47
2023-01-08T01:15:09.892Z,24.00
2023-01-08T01:17:39.170Z,25.64
2023-01-08T01:20:08.016Z,25.88
2023-01-08T01:22:35.439Z,26.52
2023-01-08T01:25:02.608Z,25.90
2023-01-08T01:27:29.319Z,26.13
2023-01-08T01:29:56.049Z,28.19
2023-01-08T01:32:22.883Z,26.62
2023-01-08T01:34:50.147Z,24.79
2023-01-08T01:37:17.260Z,27.52
2023-01-08T01:39:44.235Z,27.69
2023-01-08T01:42:36.164Z,27.64
2023-01-08T01:45:17.444Z,31.52
2023-01-08T01:47:47.994Z,25.72
2023-01-08T01:50:20.308Z,24.29
2023-01-08T01:53:00.247Z,26.23
2023-01-08T01:55:27.938Z,25.79
2023-01-08T01:58:24.701Z,26.32
2023-01-08T02:00:53.239Z,29.24
2023-01-08T02:03:32.810Z,28.66
2023-01-08T02:06:24.543Z,26.40
2023-01-08T02:09:41.805Z,25.22
2023-01-08T02:12:18.174Z,24.27
2023-01-08T02:15:01.348Z,25.09
2023-01-08T02:17:34.372Z,25.66
2023-01-08T02:20:09.460Z,30.55
2023-01-08T02:22:36.557Z,28.95
2023-01-08T02:25:41.542Z,28.50
2023-01-08T02:28:11.865Z,24.76
2023-01-08T02:30:38.891Z,24.26
2023-01-08T02:33:05.754Z,25.35
2023-01-08T02:36:10.027Z,24.47
2023-01-08T02:38:42.603Z,25.18
2023-01-08T02:41:12.783Z,23.99
2023-01-08T02:43:50.596Z,23.45
2023-01-08T02:46:23.365Z,24.06
2023-01-08T02:48:54.853Z,24.47
2023-01-08T02:51:40.953Z,24.56
2023-01-08T02:54:12.011Z,22.55
2023-01-08T02:56:46.784Z,24.17
2023-01-08T02:59:15.581Z,24.68
2023-01-08T03:01:43.862Z,25.93
2023-01-08T03:04:16.755Z,25.71
2023-01-08T03:06:44.996Z,25.73
2023-01-08T03:09:12.691Z,23.69
2023-01-08T03:11:46.770Z,22.87
2023-01-08T03:14:25.527Z,22.37
2023-01-08T03:16:59.004Z,21.88
2023-01-08T03:19:34.712Z,23.44
2023-01-08T03:22:03.548Z,23.34
2023-01-08T03:24:34.830Z,22.33
2023-01-08T03:27:06.127Z,23.52
2023-01-08T03:29:34.566Z,24.21
2023-01-08T03:32:06.472Z,27.43
2023-01-08T03:34:37.982Z,23.60
2023-01-08T03:37:08.015Z,23.27
2023-01-08T03:39:45.126Z,22.42
2023-01-08T03:42:15.311Z,24.43
2023-01-08T03:44:42.390Z,24.63
2023-01-08T03:47:11.367Z,24.65
2023-01-08T03:49:40.320Z,23.70
2023-01-08T03:52:07.428Z,23.72
2023-01-08T03:54:36.479Z,22.98
2023-01-08T03:57:03.529Z,22.89
2023-01-08T03:59:30.580Z,23.35
2023-01-08T04:01:57.342Z,24.48
2023-01-08T04:04:24.186Z,26.80
2023-01-08T04:06:53.130Z,25.10
2023-01-08T04:09:20.207Z,26.87
2023-01-08T04:11:46.869Z,23.40
2023-01-08T04:14:13.866Z,27.09
2023-01-08T04:16:41.004Z,29.51
2023-01-08T04:19:07.888Z,27.57
2023-01-08T04:21:34.618Z,25.29
2023-01-08T04:24:01.363Z,24.47
2023-01-08T04:26:28.084Z,26.69
2023-01-08T04:28:54.832Z,30.08
2023-01-08T04:31:21.979Z,29.40
2023-01-08T04:33:49.242Z,28.29
2023-01-08T04:36:16.030Z,28.79
2023-01-08T04:38:42.750Z,25.72
2023-01-08T04:41:09.414Z,26.01
2023-01-08T04:43:36.829Z,24.71
2023-01-08T04:46:07.800Z,23.62
2023-01-08T04:48:35.017Z,24.42
2023-01-08T04:51:03.860Z,25.27
2023-01-08T04:53:33.827Z,24.75
2023-01-08T04:56:08.790Z,28.02
2023-01-08T04:58:36.927Z,26.97
2023-01-08T05:01:16.081Z,25.05
2023-01-08T05:03:42.815Z,28.80
2023-01-08T05:06:09.925Z,27.76
2023-01-08T05:08:37.123Z,27.87
2023-01-08T05:11:04.430Z,26.75
2023-01-08T05:13:31.494Z,26.83
2023-01-08T05:16:01.766Z,27.11
2023-01-08T05:18:30.137Z,28.42
2023-01-08T05:21:02.178Z,29.21
2023-01-08T05:23:30.168Z,25.70
2023-01-08T05:26:01.368Z,24.37
2023-01-08T05:28:28.838Z,24.19
2023-01-08T05:30:55.873Z,25.98
2023-01-08T05:33:23.585Z,26.16
2023-01-08T05:35:51.180Z,23.76
2023-01-08T05:38:19.405Z,26.48
2023-01-08T05:40:46.444Z,25.02
2023-01-08T05:43:13.135Z,24.24
2023-01-08T05:45:39.937Z,30.03
2023-01-08T05:48:07.861Z,27.62
2023-01-08T05:50:36.160Z,24.30
2023-01-08T05:53:07.648Z,23.93
2023-01-08T05:55:35.462Z,23.33
2023-01-08T05:58:03.547Z,23.13
2023-01-08T06:00:31.620Z,23.86
2023-01-08T06:02:58.492Z,26.10
2023-01-08T06:05:25.633Z,27.37
2023-01-08T06:07:52.830Z,25.26
2023-01-08T06:10:19.632Z,23.91
2023-01-08T06:12:47.358Z,22.94
2023-01-08T06:15:14.096Z,23.11
2023-01-08T06:17:41.139Z,24.08
2023-01-08T06:20:08.884Z,24.72
2023-01-08T06:22:35.816Z,28.32
2023-01-08T06:25:03.416Z,24.44
2023-01-08T06:27:30.280Z,25.59
2023-01-08T06:29:57.394Z,24.75
2023-01-08T06:32:24.252Z,24.13
2023-01-08T06:34:50.987Z,25.54
2023-01-08T06:37:18.498Z,25.27
2023-01-08T06:39:45.197Z,25.72
2023-01-08T06:42:12.270Z,23.78
2023-01-08T06:44:39.112Z,25.00
2023-01-08T06:47:05.869Z,22.83
2023-01-08T06:49:32.540Z,24.79
2023-01-08T06:51:59.273Z,26.38
2023-01-08T06:54:26.056Z,26.46
2023-01-08T06:56:54.386Z,26.85
2023-01-08T06:59:21.994Z,26.26
2023-01-08T07:01:49.353Z,23.86
2023-01-08T07:04:17.448Z,23.82
2023-01-08T07:06:44.215Z,22.03
2023-01-08T07:09:15.531Z,26.22
2023-01-08T07:11:42.742Z,23.54
2023-01-08T07:14:09.753Z,25.22
2023-01-08T07:16:37.049Z,23.89
2023-01-08T07:19:03.941Z,25.08
2023-01-08T07:21:31.522Z,23.72
2023-01-08T07:23:59.640Z,22.58
2023-01-08T07:26:26.521Z,23.00
2023-01-08T07:28:53.969Z,23.43
2023-01-08T07:31:20.788Z,24.87
2023-01-08T07:33:47.919Z,26.79
2023-01-08T07:36:15.700Z,26.08
2023-01-08T07:38:42.999Z,24.17
2023-01-08T07:41:09.874Z,24.41
2023-01-08T07:43:36.723Z,22.95
2023-01-08T07:46:04.522Z,22.38
2023-01-08T07:48:32.690Z,22.37
2023-01-08T07:51:04.074Z,21.76
2023-01-08T07:53:30.923Z,21.47
2023-01-08T07:56:05.653Z,21.19
2023-01-08T07:58:33.019Z,21.49
2023-01-08T08:01:00.589Z,22.34
2023-01-08T08:03:27.576Z,23.64
2023-01-08T08:05:54.652Z,22.43
2023-01-08T08:08:21.525Z,23.00
2023-01-08T08:10:48.221Z,25.83
2023-01-08T08:13:15.002Z,24.11
2023-01-08T08:15:41.821Z,23.91
2023-01-08T08:18:10.055Z,22.05
2023-01-08T08:20:37.724Z,21.44
2023-01-08T08:23:07.729Z,22.59
2023-01-08T08:25:35.316Z,22.15
2023-01-08T08:28:03.163Z,22.24
2023-01-08T08:30:32.104Z,26.30
2023-01-08T08:33:01.573Z,25.35
2023-01-08T08:35:29.347Z,23.08
2023-01-08T08:37:57.049Z,24.75
2023-01-08T08:40:25.195Z,28.00
2023-01-08T08:42:59.882Z,26.50
2023-01-08T08:45:27.627Z,24.50
2023-01-08T08:47:54.707Z,26.28
2023-01-08T08:50:22.234Z,23.47
2023-01-08T08:52:49.212Z,25.01
2023-01-08T08:55:17.424Z,24.27
2023-01-08T08:57:45.590Z,24.50
2023-01-08T09:00:13.753Z,24.28
2023-01-08T09:02:41.054Z,25.52
2023-01-08T09:05:08.264Z,25.75
2023-01-08T09:07:35.767Z,25.06
2023-01-08T09:10:03.565Z,22.17
2023-01-08T09:12:30.389Z,25.75
2023-01-08T09:14:57.345Z,23.29
2023-01-08T09:17:25.968Z,22.02
2023-01-08T09:19:53.282Z,23.29
2023-01-08T09:22:20.159Z,26.73
2023-01-08T09:24:46.917Z,22.55
2023-01-08T09:27:14.835Z,23.13
2023-01-08T09:29:41.662Z,22.92
2023-01-08T09:32:09.875Z,24.29
2023-01-08T09:34:36.673Z,22.56
2023-01-08T09:37:04.340Z,24.04
2023-01-08T09:39:32.487Z,23.00
2023-01-08T09:42:02.710Z,20.50
2023-01-08T09:44:36.116Z,21.07
2023-01-08T09:47:03.704Z,22.62
2023-01-08T09:49:42.542Z,22.74
2023-01-08T09:52:13.711Z,20.78
2023-01-08T09:54:41.257Z,22.07
2023-01-08T09:57:17.900Z,24.12
2023-01-08T09:59:48.033Z,22.93
2023-01-08T10:02:24.230Z,22.57
2023-01-08T10:04:57.611Z,22.70
2023-01-08T10:07:26.581Z,21.90
2023-01-08T10:09:55.139Z,24.55
2023-01-08T10:12:30.512Z,24.15
2023-01-08T10:15:01.798Z,22.35
2023-01-08T10:17:37.407Z,20.64
2023-01-08T10:20:22.747Z,19.74
2023-01-08T10:22:54.314Z,19.83
2023-01-08T10:25:24.244Z,17.76
2023-01-08T10:27:54.906Z,23.60
2023-01-08T10:30:36.445Z,18.03
2023-01-08T10:33:12.858Z,17.32
2023-01-08T10:35:42.466Z,17.51
2023-01-08T10:39:00.805Z,18.11
2023-01-08T10:41:28.381Z,20.53
2023-01-08T10:44:00.667Z,21.91
2023-01-08T10:46:43.447Z,20.59
2023-01-08T10:49:41.982Z,19.54
2023-01-08T10:52:33.678Z,20.72
2023-01-08T10:55:23.139Z,19.56
2023-01-08T10:58:03.515Z,19.34
2023-01-08T11:00:35.683Z,19.22
2023-01-08T11:03:28.864Z,19.95
2023-01-08T11:05:55.772Z,21.16
2023-01-08T11:08:23.449Z,21.91
2023-01-08T11:11:01.720Z,22.84
2023-01-08T11:13:30.128Z,22.63
2023-01-08T11:16:06.801Z,24.04
2023-01-08T11:18:52.030Z,22.47
2023-01-08T11:21:20.659Z,21.86
2023-01-08T11:23:48.672Z,22.81
2023-01-08T11:26:21.854Z,23.02
2023-01-08T11:29:27.247Z,23.00
2023-01-08T11:32:07.726Z,23.05
2023-01-08T11:34:54.689Z,22.39
2023-01-08T11:37:26.368Z,21.82
2023-01-08T11:39:54.765Z,22.93
2023-01-08T11:42:27.542Z,22.77
2023-01-08T11:45:38.720Z,22.91
2023-01-08T11:48:23.838Z,24.40
2023-01-08T11:50:56.084Z,27.44
2023-01-08T11:53:42.820Z,25.44
2023-01-08T11:56:20.971Z,23.82
2023-01-08T11:59:11.517Z,21.84
2023-01-08T12:02:04.586Z,21.52
2023-01-08T12:04:43.882Z,22.92
2023-01-08T12:07:29.164Z,23.63
2023-01-08T12:10:01.405Z,23.44
2023-01-08T12:12:56.384Z,22.27
2023-01-08T12:15:43.044Z,22.86
2023-01-08T12:18:51.763Z,22.59
2023-01-08T12:21:56.643Z,23.29
2023-01-08T12:24:45.888Z,23.83
2023-01-08T12:27:54.514Z,22.44
2023-01-08T12:30:20.686Z,23.96
2023-01-08T12:33:01.825Z,23.00
2023-01-08T12:35:36.499Z,24.69
2023-01-08T12:38:11.558Z,24.05
2023-01-08T12:40:46.733Z,23.23
2023-01-08T12:43:28.925Z,22.53
2023-01-08T12:45:59.779Z,24.24
2023-01-08T12:48:33.349Z,23.40
2023-01-08T12:51:04.722Z,23.30
2023-01-08T12:53:56.611Z,23.60
2023-01-08T12:56:47.454Z,22.91
2023-01-08T12:59:29.711Z,24.09
2023-01-08T13:02:27.869Z,23.59
2023-01-08T13:04:54.763Z,23.66
2023-01-08T13:07:27.960Z,24.88
2023-01-08T13:10:03.083Z,26.24
2023-01-08T13:12:41.129Z,25.65
2023-01-08T13:15:08.746Z,26.19
2023-01-08T13:17:37.921Z,24.54
2023-01-08T13:20:06.987Z,24.40
2023-01-08T13:22:36.956Z,25.30
2023-01-08T13:25:15.672Z,24.76
2023-01-08T13:27:43.400Z,22.75
2023-01-08T13:30:40.791Z,26.23
2023-01-08T13:33:44.123Z,24.16
2023-01-08T13:36:14.025Z,25.64
2023-01-08T13:38:42.052Z,26.22
2023-01-08T13:41:31.534Z,24.60
2023-01-08T13:44:02.089Z,23.19
2023-01-08T13:46:29.549Z,22.12
2023-01-08T13:49:06.860Z,24.21
2023-01-08T13:51:44.035Z,23.53
2023-01-08T13:54:16.744Z,23.27
2023-01-08T13:56:46.745Z,22.87
2023-01-08T13:59:25.680Z,22.76
2023-01-08T14:01:54.139Z,22.94
2023-01-08T14:04:23.136Z,25.77
2023-01-08T14:06:50.265Z,25.50
2023-01-08T14:09:26.221Z,24.57
2023-01-08T14:11:57.855Z,24.79
2023-01-08T14:14:26.827Z,22.41
2023-01-08T14:16:56.040Z,23.57
2023-01-08T14:19:25.429Z,24.50
2023-01-08T14:21:55.167Z,24.47
2023-01-08T14:24:25.006Z,24.45
2023-01-08T14:27:00.779Z,23.49
2023-01-08T14:29:30.857Z,24.76
2023-01-08T14:32:00.392Z,23.59
2023-01-08T14:34:30.978Z,25.49
2023-01-08T14:36:58.428Z,23.84
2023-01-08T14:39:36.516Z,25.38
2023-01-08T14:42:44.149Z,24.47
2023-01-08T14:45:21.439Z,24.04
2023-01-08T14:47:51.120Z,23.47
2023-01-08T14:50:23.975Z,23.45
2023-01-08T14:52:53.463Z,24.26
2023-01-08T14:55:22.374Z,26.75
2023-01-08T14:57:53.529Z,26.25
2023-01-08T15:00:29.468Z,27.63
2023-01-08T15:02:56.803Z,23.15
2023-01-08T15:05:32.397Z,24.40
2023-01-08T15:08:22.436Z,25.82
2023-01-08T15:11:20.877Z,23.31
2023-01-08T15:13:49.782Z,24.88
2023-01-08T15:16:29.051Z,23.65
2023-01-08T15:19:10.852Z,25.06
2023-01-08T15:21:38.777Z,24.25
2023-01-08T15:24:07.601Z,24.51
2023-01-08T15:26:34.612Z,24.50
2023-01-08T15:29:07.646Z,25.56
2023-01-08T15:31:40.451Z,23.46
2023-01-08T15:34:08.832Z,24.09
2023-01-08T15:36:35.648Z,24.61
2023-01-08T15:39:03.610Z,24.51
2023-01-08T15:41:53.662Z,24.13
2023-01-08T15:44:20.683Z,23.77
2023-01-08T15:46:47.696Z,24.79
2023-01-08T15:49:14.629Z,24.12
2023-01-08T15:51:58.464Z,22.63
2023-01-08T15:54:26.037Z,22.64
2023-01-08T15:56:52.856Z,26.39
2023-01-08T15:59:19.537Z,25.77
2023-01-08T16:01:46.288Z,25.79
2023-01-08T16:04:13.607Z,26.41
2023-01-08T16:06:42.289Z,24.95
2023-01-08T16:09:09.350Z,25.42
2023-01-08T16:11:36.131Z,24.28
2023-01-08T16:14:02.995Z,24.90
2023-01-08T16:16:29.970Z,24.32
2023-01-08T16:18:58.676Z,23.90
2023-01-08T16:21:25.428Z,24.95
2023-01-08T16:23:53.037Z,25.79
2023-01-08T16:26:19.783Z,24.89
2023-01-08T16:28:46.506Z,25.59
2023-01-08T16:31:13.851Z,25.68
2023-01-08T16:33:40.651Z,25.65
2023-01-08T16:36:08.585Z,26.27
2023-01-08T16:38:36.418Z,24.99
2023-01-08T16:41:05.341Z,25.66
2023-01-08T16:43:40.216Z,25.79
2023-01-08T16:46:12.714Z,25.47
2023-01-08T16:48:40.773Z,24.89
2023-01-08T16:51:08.245Z,25.46
2023-01-08T16:53:36.646Z,26.16
2023-01-08T16:56:04.571Z,23.81
2023-01-08T16:58:31.824Z,26.43
2023-01-08T17:00:59.455Z,26.30
2023-01-08T17:03:26.283Z,26.57
2023-01-08T17:05:53.511Z,26.72
2023-01-08T17:08:20.673Z,27.76
2023-01-08T17:10:47.456Z,27.55
2023-01-08T17:13:14.412Z,28.56
2023-01-08T17:15:41.166Z,26.81
2023-01-08T17:18:08.465Z,27.95
2023-01-08T17:20:35.735Z,28.11
2023-01-08T17:23:02.561Z,28.05
2023-01-08T17:25:29.650Z,28.44
2023-01-08T17:27:56.341Z,27.25
2023-01-08T17:30:23.656Z,26.35
2023-01-08T17:32:50.489Z,26.93
2023-01-08T17:35:17.262Z,25.72
2023-01-08T17:37:44.595Z,24.15
2023-01-08T17:40:11.918Z,25.30
2023-01-08T17:42:39.750Z,26.60
2023-01-08T17:45:08.473Z,25.76
2023-01-08T17:47:37.352Z,25.56
2023-01-08T17:50:05.772Z,26.21
2023-01-08T17:52:32.630Z,25.41
2023-01-08T17:54:59.663Z,27.93
2023-01-08T17:57:26.609Z,26.32
2023-01-08T17:59:54.026Z,26.45
2023-01-08T18:02:20.966Z,26.02
2023-01-08T18:04:48.853Z,25.49
2023-01-08T18:07:16.625Z,26.37
2023-01-08T18:09:44.832Z,26.76
2023-01-08T18:12:11.866Z,26.95
2023-01-08T18:14:39.927Z,25.75
2023-01-08T18:17:06.647Z,24.87
2023-01-08T18:19:33.625Z,26.62
2023-01-08T18:22:01.250Z,25.14
2023-01-08T18:24:28.872Z,24.72
2023-01-08T18:26:55.767Z,25.69
2023-01-08T18:29:22.784Z,25.28
2023-01-08T18:31:49.671Z,25.04
2023-01-08T18:34:16.790Z,26.44
2023-01-08T18:36:43.872Z,26.45
2023-01-08T18:39:12.427Z,25.98
2023-01-08T18:41:57.788Z,24.71
2023-01-08T18:44:25.235Z,25.72
2023-01-08T18:46:52.061Z,27.74
2023-01-08T18:49:20.215Z,26.51
2023-01-08T18:51:47.227Z,24.34
2023-01-08T18:54:14.462Z,27.07
2023-01-08T18:56:41.448Z,25.15
2023-01-08T18:59:09.556Z,25.20
2023-01-08T19:01:36.563Z,25.77
2023-01-08T19:04:03.581Z,26.27
2023-01-08T19:06:30.882Z,24.71
2023-01-08T19:08:59.250Z,25.68
2023-01-08T19:11:26.358Z,24.93
2023-01-08T19:13:55.758Z,24.34
2023-01-08T19:16:22.771Z,23.41
2023-01-08T19:18:50.413Z,27.50
2023-01-08T19:21:19.353Z,24.69
2023-01-08T19:23:47.660Z,26.22
2023-01-08T19:26:15.895Z,25.55
2023-01-08T19:28:43.299Z,27.37
2023-01-08T19:31:15.707Z,25.26
2023-01-08T19:33:43.417Z,23.45
2023-01-08T19:36:15.972Z,23.33
2023-01-08T19:38:44.533Z,25.11
2023-01-08T19:41:30.769Z,25.03
2023-01-08T19:43:59.306Z,23.92
2023-01-08T19:46:26.493Z,25.09
2023-01-08T19:48:57.114Z,26.91
2023-01-08T19:51:25.059Z,27.51
2023-01-08T19:53:52.874Z,24.20
2023-01-08T19:56:20.245Z,25.32
2023-01-08T19:58:47.517Z,28.50
2023-01-08T20:01:23.206Z,25.12
2023-01-08T20:03:51.147Z,25.91
2023-01-08T20:06:21.004Z,26.67
2023-01-08T20:08:49.147Z,24.75
2023-01-08T20:11:17.326Z,24.80
2023-01-08T20:13:44.843Z,23.50
2023-01-08T20:16:14.966Z,24.82
2023-01-08T20:18:42.301Z,27.00
2023-01-08T20:21:17.749Z,26.12
2023-01-08T20:23:46.161Z,25.98
2023-01-08T20:26:16.741Z,27.12
2023-01-08T20:28:45.340Z,24.13
2023-01-08T20:31:18.042Z,23.61
2023-01-08T20:33:46.350Z,23.63
2023-01-08T20:36:16.651Z,23.94
2023-01-08T20:38:44.931Z,23.90
2023-01-08T20:41:12.590Z,24.18
2023-01-08T20:43:41.229Z,25.16
2023-01-08T20:46:13.794Z,24.07
2023-01-08T20:48:47.683Z,23.67
2023-01-08T20:51:16.327Z,25.77
2023-01-08T20:53:43.136Z,24.99
2023-01-08T20:56:15.401Z,24.48
2023-01-08T20:58:47.677Z,22.88
2023-01-08T21:01:18.950Z,23.67
2023-01-08T21:03:46.892Z,25.85
2023-01-08T21:06:18.537Z,24.45
2023-01-08T21:08:48.202Z,24.91
2023-01-08T21:11:15.546Z,24.68
2023-01-08T21:13:43.085Z,24.54
2023-01-08T21:16:14.242Z,24.73
2023-01-08T21:18:48.677Z,23.06
2023-01-08T21:21:32.008Z,24.40
2023-01-08T21:24:00.671Z,25.96
2023-01-08T21:26:27.416Z,26.45
2023-01-08T21:28:54.673Z,23.58
2023-01-08T21:31:26.633Z,22.69
2023-01-08T21:33:56.721Z,21.58
2023-01-08T21:36:26.121Z,23.69
2023-01-08T21:38:53.921Z,25.12
2023-01-08T21:41:41.107Z,24.36
2023-01-08T21:44:32.787Z,23.64
2023-01-08T21:47:02.491Z,24.33
2023-01-08T21:49:29.428Z,24.19
2023-01-08T21:52:15.843Z,25.19
2023-01-08T21:54:42.703Z,27.24
2023-01-08T21:57:10.083Z,23.87
2023-01-08T21:59:37.063Z,25.05
2023-01-08T22:02:05.032Z,23.98
2023-01-08T22:04:32.514Z,25.82
2023-01-08T22:06:59.305Z,24.93
2023-01-08T22:09:27.019Z,26.63
2023-01-08T22:11:55.068Z,26.45
2023-01-08T22:14:22.198Z,26.52
2023-01-08T22:16:48.987Z,25.41
2023-01-08T22:19:16.153Z,24.19
2023-01-08T22:21:43.016Z,26.20
2023-01-08T22:24:09.963Z,28.50
2023-01-08T22:26:36.840Z,27.04
2023-01-08T22:29:06.032Z,30.34
2023-01-08T22:31:33.891Z,26.52
2023-01-08T22:34:01.193Z,25.52
2023-01-08T22:36:28.114Z,28.46
2023-01-08T22:38:54.944Z,26.96
2023-01-08T22:41:24.085Z,26.59
2023-01-08T22:43:56.683Z,26.22
2023-01-08T22:46:24.629Z,24.85
2023-01-08T22:48:51.600Z,23.41
2023-01-08T22:51:27.270Z,23.98
2023-01-08T22:53:58.743Z,23.46
2023-01-08T22:56:26.708Z,22.77
2023-01-08T22:58:54.063Z,23.96
2023-01-08T23:01:27.369Z,22.79
2023-01-08T23:03:56.977Z,22.29
2023-01-08T23:06:25.527Z,22.55
2023-01-08T23:08:52.923Z,26.94
2023-01-08T23:11:21.206Z,28.52
2023-01-08T23:13:48.893Z,28.49
2023-01-08T23:16:17.920Z,29.10
2023-01-08T23:18:44.865Z,27.77
2023-01-08T23:21:17.841Z,25.46
2023-01-08T23:23:45.411Z,28.51
2023-01-08T23:26:24.967Z,26.87
2023-01-08T23:28:53.470Z,27.05
2023-01-08T23:31:26.861Z,26.00
2023-01-08T23:33:54.035Z,27.97
2023-01-08T23:36:21.996Z,28.03
2023-01-08T23:38:53.238Z,26.63
2023-01-08T23:41:23.231Z,27.68
2023-01-08T23:43:50.336Z,26.36
2023-01-08T23:46:18.082Z,23.73
2023-01-08T23:48:45.467Z,23.48
2023-01-08T23:51:12.896Z,23.62
2023-01-08T23:53:39.709Z,23.63
2023-01-08T23:56:07.557Z,23.94
2023-01-08T23:58:35.139Z,22.51
